Terminal Aerodrome Forecast
Issued by NWS

Home | Current Version | Previous Version | Graphics & Text | Print | Product List | Glossary On
Versions: 1 2 3 4 5 6 7 8 9 10 11 12 13 14 15 16 17 18
000
FTUS43 KMPX 231735
TAFRWF
TAF
KRWF 231735Z 2318/2418 16012G18KT P6SM SCT010 BKN020 OVC035
     FM232200 18016G22KT P6SM VCSH BKN050
      TEMPO 2323/2401 1SM TSRA BKN025CB
     FM240130 22011KT P6SM SCT040 BKN070
     FM240700 17008KT P6SM SKC=

USA.gov is the U.S. government's official web portal to all federal, state and local government web resources and services.